Time;durP1;ratioP1;P1;durP2;ratioP2;P2;SDS_P1;SDS_P2;PMS_P1;PMS_P2;Temp;Humidity;BMP_temperature;BMP_pressure;BME280_temperature;BME280_humidity;BME280_pressure;Samples;Min_cycle;Max_cycle;Signal;HPM_P1;HPM_P2
2024/04/16 00:01:37;;;;;;;7.70;4.88;;;;;;;20.08;37.37;94435.94;5400653;26;20394;-74
2024/04/16 00:04:02;;;;;;;7.00;4.13;;;;;;;20.00;37.34;94430.13;5401408;26;19999;-75
2024/04/16 00:06:28;;;;;;;7.43;4.50;;;;;;;19.96;37.44;94432.44;5400739;26;20007;-73
2024/04/16 00:08:53;;;;;;;10.27;4.30;;;;;;;20.03;37.30;94433.94;5401519;26;20014;-73
2024/04/16 00:11:18;;;;;;;5.50;4.00;;;;;;;19.84;37.54;94434.47;5400355;26;20000;-74
2024/04/16 00:13:44;;;;;;;7.35;4.93;;;;;;;19.80;37.72;94431.19;5401399;26;20205;-74
2024/04/16 00:16:09;;;;;;;8.23;4.30;;;;;;;19.72;38.00;94432.97;5400918;26;20321;-73
2024/04/16 00:18:35;;;;;;;8.75;4.60;;;;;;;19.66;38.23;94440.56;5400846;26;20346;-73
2024/04/16 00:21:00;;;;;;;6.43;4.22;;;;;;;19.69;37.86;94425.63;5400731;26;20004;-73
2024/04/16 00:23:27;;;;;;;8.15;4.45;;;;;;;19.69;38.25;94427.66;5400072;26;20052;-74
2024/04/16 00:25:53;;;;;;;8.57;4.22;;;;;;;19.69;38.39;94422.06;5401445;26;19996;-74
2024/04/16 00:28:18;;;;;;;6.00;4.20;;;;;;;19.63;38.36;94424.88;5399966;26;20006;-74
2024/04/16 00:30:44;;;;;;;6.65;4.32;;;;;;;19.67;38.37;94425.38;5400909;26;20000;-74
2024/04/16 00:33:09;;;;;;;7.40;4.25;;;;;;;19.67;38.46;94422.59;5399002;26;20340;-74
2024/04/16 00:35:34;;;;;;;5.88;3.70;;;;;;;19.63;38.60;94428.41;5400966;26;20422;-74
2024/04/16 00:38:00;;;;;;;5.32;4.43;;;;;;;19.61;38.64;94430.97;5400796;26;20114;-73
2024/04/16 00:40:25;;;;;;;5.85;3.97;;;;;;;19.58;38.75;94437.53;5400987;26;19996;-73
2024/04/16 00:42:51;;;;;;;5.72;4.32;;;;;;;19.60;38.40;94437.78;5404999;26;19995;-72
2024/04/16 00:45:16;;;;;;;5.85;4.00;;;;;;;19.56;38.48;94434.47;5401578;26;19991;-73
2024/04/16 00:47:43;;;;;;;6.68;4.18;;;;;;;19.49;38.57;94434.22;5404419;26;19996;-73
2024/04/16 00:50:08;;;;;;;6.50;5.25;;;;;;;19.51;38.34;94431.69;5403781;26;20356;-74
2024/04/16 00:52:34;;;;;;;6.47;4.40;;;;;;;19.49;38.16;94432.19;5404046;26;20005;-74
2024/04/16 00:55:00;;;;;;;5.95;3.92;;;;;;;19.61;38.12;94430.97;5403828;26;20007;-74
2024/04/16 00:57:25;;;;;;;6.32;4.18;;;;;;;19.58;38.26;94437.53;5401887;26;20039;-73
2024/04/16 00:59:51;;;;;;;5.03;3.70;;;;;;;19.54;38.29;94444.59;5402342;26;20507;-73
2024/04/16 01:02:16;;;;;;;6.25;4.10;;;;;;;19.51;38.35;94443.59;5402881;26;20004;-73
2024/04/16 01:04:42;;;;;;;8.15;4.35;;;;;;;19.51;38.44;94437.28;5404419;26;20412;-73
2024/04/16 01:07:08;;;;;;;6.07;4.45;;;;;;;19.50;38.58;94435.75;5401338;26;20000;-72
2024/04/16 01:09:33;;;;;;;6.63;4.22;;;;;;;19.46;38.56;94429.66;5404530;26;20010;-74
2024/04/16 01:11:59;;;;;;;5.72;4.00;;;;;;;19.45;38.69;94436.53;5403418;26;20010;-74
2024/04/16 01:14:24;;;;;;;8.25;4.85;;;;;;;19.43;38.84;94436.25;5404069;26;20071;-73
2024/04/16 01:16:49;;;;;;;6.13;4.53;;;;;;;19.37;38.87;94423.06;5404398;26;19995;-73
2024/04/16 01:19:15;;;;;;;5.45;4.50;;;;;;;19.44;38.53;94437.75;5403255;26;20003;-73
2024/04/16 01:21:40;;;;;;;6.43;4.15;;;;;;;19.42;38.75;94440.31;5404065;26;20330;-73
2024/04/16 01:24:06;;;;;;;6.28;4.15;;;;;;;19.38;38.91;94443.34;5402137;26;20000;-74
2024/04/16 01:26:31;;;;;;;5.75;4.18;;;;;;;19.32;39.09;94448.91;5404311;26;20419;-73
2024/04/16 01:28:56;;;;;;;8.52;4.97;;;;;;;19.29;38.93;94449.19;5403443;26;20015;-73
2024/04/16 01:31:22;;;;;;;8.23;4.50;;;;;;;19.22;39.06;94450.44;5403655;26;20014;-73
2024/04/16 01:33:47;;;;;;;7.28;5.10;;;;;;;19.15;39.01;94448.13;5403662;26;20072;-74
2024/04/16 01:36:13;;;;;;;9.38;5.10;;;;;;;19.07;39.15;94445.09;5402790;26;20071;-74
2024/04/16 01:38:38;;;;;;;7.45;4.65;;;;;;;19.06;39.27;94451.19;5401779;26;20480;-74
2024/04/16 01:41:04;;;;;;;7.18;4.65;;;;;;;18.98;39.36;94436.22;5402178;26;19999;-73
2024/04/16 01:43:29;;;;;;;6.13;4.50;;;;;;;18.98;39.19;94430.63;5403738;26;20024;-73
2024/04/16 01:45:55;;;;;;;6.38;4.20;;;;;;;18.96;39.36;94422.03;5402929;26;20433;-73
2024/04/16 01:48:20;;;;;;;5.13;4.00;;;;;;;18.92;38.76;94424.31;5403150;26;20004;-74
2024/04/16 01:50:46;;;;;;;5.45;4.03;;;;;;;18.96;38.53;94424.81;5400642;26;20406;-74
2024/04/16 01:53:11;;;;;;;7.90;4.30;;;;;;;18.97;38.52;94418.75;5401146;26;20406;-74
2024/04/16 01:55:38;;;;;;;6.97;4.18;;;;;;;18.92;38.69;94410.38;5403219;26;20315;-72
2024/04/16 01:58:04;;;;;;;7.97;4.32;;;;;;;18.91;38.34;94408.88;5402549;26;20011;-74
2024/04/16 02:00:29;;;;;;;6.65;4.43;;;;;;;18.96;38.43;94411.66;5401427;26;20027;-73
2024/04/16 02:02:55;;;;;;;4.57;4.05;;;;;;;18.95;39.24;94410.13;5402285;26;19995;-75
2024/04/16 02:05:20;;;;;;;6.68;4.45;;;;;;;18.98;39.12;94408.34;5403267;26;19995;-73
2024/04/16 02:07:46;;;;;;;7.55;4.60;;;;;;;18.94;38.67;94407.88;5403087;26;20320;-73
2024/04/16 02:10:13;;;;;;;6.20;4.03;;;;;;;18.86;38.72;94404.78;5402749;26;20012;-73
2024/04/16 02:12:39;;;;;;;6.88;4.05;;;;;;;18.76;38.71;94417.47;5403175;26;20508;-73
2024/04/16 02:15:05;;;;;;;5.72;4.45;;;;;;;18.67;38.62;94412.06;5402565;26;20363;-74
2024/04/16 02:17:30;;;;;;;6.22;4.38;;;;;;;18.64;38.74;94413.06;5402115;26;20071;-74
2024/04/16 02:19:56;;;;;;;5.88;4.25;;;;;;;18.55;39.09;94405.72;5402142;26;20004;-73
2024/04/16 02:22:21;;;;;;;8.90;4.70;;;;;;;18.56;39.24;94407.25;5401265;26;19992;-74
2024/04/16 02:24:47;;;;;;;6.07;4.60;;;;;;;18.47;39.28;94397.09;5402527;26;19996;-73
2024/04/16 02:27:12;;;;;;;9.25;4.78;;;;;;;18.50;39.12;94404.44;5402911;26;20356;-73
2024/04/16 02:29:37;;;;;;;10.35;4.93;;;;;;;18.44;39.29;94394.56;5400706;26;20057;-73
2024/04/16 02:32:03;;;;;;;11.20;4.97;;;;;;;18.40;39.48;94397.56;5402438;26;20737;-74
2024/04/16 02:34:28;;;;;;;6.95;4.57;;;;;;;18.46;39.88;94397.59;5402807;26;19996;-74
2024/04/16 02:36:54;;;;;;;7.80;4.10;;;;;;;18.47;39.30;94399.13;5402203;26;20000;-72
2024/04/16 02:39:22;;;;;;;6.35;4.38;;;;;;;18.41;39.05;94398.34;5402520;26;20433;-74
2024/04/16 02:41:47;;;;;;;7.15;4.53;;;;;;;18.32;38.92;94396.53;5401754;26;20011;-74
2024/04/16 02:44:13;;;;;;;7.15;4.18;;;;;;;18.27;39.10;94391.72;5402789;26;20000;-74
2024/04/16 02:46:38;;;;;;;9.98;4.57;;;;;;;18.21;39.23;94388.16;5402259;26;19999;-73
2024/04/16 02:49:04;;;;;;;6.60;4.50;;;;;;;18.14;39.33;94397.75;5402215;26;19999;-73
2024/04/16 02:51:29;;;;;;;8.18;4.65;;;;;;;18.10;39.53;94404.78;5402274;26;20007;-74
2024/04/16 02:53:54;;;;;;;6.35;4.32;;;;;;;18.10;39.73;94396.47;5402369;26;20430;-74
2024/04/16 02:56:20;;;;;;;8.95;4.60;;;;;;;18.05;39.83;94397.94;5402342;26;19999;-74
2024/04/16 02:58:45;;;;;;;6.22;4.40;;;;;;;18.05;40.00;94384.03;5401918;26;20414;-74
2024/04/16 03:01:10;;;;;;;9.05;5.03;;;;;;;18.02;40.05;94385.06;5402239;26;20003;-73
2024/04/16 03:03:36;;;;;;;8.10;5.13;;;;;;;17.99;40.33;94380.47;5400298;26;20008;-74
2024/04/16 03:06:02;;;;;;;13.07;4.80;;;;;;;18.00;40.39;94384.78;5403106;26;19999;-74
2024/04/16 03:08:28;;;;;;;14.80;6.00;;;;;;;17.96;40.30;94385.03;5402008;26;20002;-74
2024/04/16 03:11:00;;;;;;;6.80;5.15;;;;;;;17.95;40.64;94372.38;5402352;26;20007;-74
2024/04/16 03:13:25;;;;;;;7.03;5.00;;;;;;;17.92;40.72;94367.81;5402500;26;20006;-73
2024/04/16 03:15:51;;;;;;;8.25;4.63;;;;;;;17.93;40.85;94366.53;5401796;26;19999;-74
2024/04/16 03:18:16;;;;;;;7.90;5.07;;;;;;;17.91;40.87;94368.31;5402512;26;20022;-73
2024/04/16 03:20:42;;;;;;;8.60;5.43;;;;;;;17.82;40.96;94349.81;5401423;26;20011;-73
2024/04/16 03:23:07;;;;;;;12.82;5.55;;;;;;;17.92;41.40;94356.69;5402031;26;20000;-73
2024/04/16 03:25:42;;;;;;;13.05;6.65;;;;;;;17.88;41.81;94358.19;5401853;26;20007;-74
2024/04/16 03:28:08;;;;;;;12.98;5.43;;;;;;;17.88;41.63;94358.94;5371012;26;19996;-75
2024/04/16 03:30:33;;;;;;;10.88;5.72;;;;;;;17.93;41.60;94368.56;5400713;26;19996;-75
2024/04/16 03:32:59;;;;;;;11.88;5.57;;;;;;;17.90;41.77;94367.56;5401747;26;19995;-75
2024/04/16 03:35:24;;;;;;;12.68;5.90;;;;;;;17.88;41.71;94366.53;5402537;26;20006;-74
2024/04/16 03:37:49;;;;;;;14.18;6.05;;;;;;;17.88;42.13;94377.63;5401571;26;20006;-75
2024/04/16 03:40:15;;;;;;;20.25;6.97;;;;;;;17.85;42.04;94365.50;5401937;26;20006;-74
2024/04/16 03:42:40;;;;;;;18.77;5.90;;;;;;;17.85;41.99;94368.28;5401635;26;19992;-75
2024/04/16 03:45:06;;;;;;;13.32;6.18;;;;;;;17.87;42.13;94373.34;5399938;26;19999;-73
2024/04/16 03:47:31;;;;;;;9.25;6.30;;;;;;;17.87;41.78;94370.56;5401919;26;20018;-73
2024/04/16 03:49:57;;;;;;;10.43;6.03;;;;;;;17.90;41.81;94375.91;5401844;26;19995;-73
2024/04/16 03:52:22;;;;;;;13.48;5.60;;;;;;;17.95;41.46;94374.38;5401855;26;20008;-73
2024/04/16 03:54:47;;;;;;;15.57;6.20;;;;;;;17.90;41.53;94380.69;5401326;26;20048;-75
2024/04/16 03:57:13;;;;;;;12.63;5.63;;;;;;;17.86;41.78;94375.38;5401936;26;19995;-73
2024/04/16 04:02:24;;;;;;;15.07;6.15;;;;;;;17.78;42.27;94385.44;5346742;26;19996;-75
2024/04/16 04:04:50;;;;;;;11.85;6.28;;;;;;;17.81;42.78;94389.25;5400753;26;20068;-73
2024/04/16 04:07:19;;;;;;;12.77;6.63;;;;;;;17.78;43.08;94388.97;5397459;26;20028;-73
2024/04/16 04:09:44;;;;;;;11.48;5.78;;;;;;;17.82;43.22;94393.53;5400333;26;20004;-75
2024/04/16 04:12:10;;;;;;;13.55;5.63;;;;;;;17.76;42.82;94397.03;5398969;26;20425;-74
2024/04/16 04:14:36;;;;;;;13.95;5.57;;;;;;;17.81;42.25;94390.00;5403767;26;20000;-74
2024/04/16 04:17:01;;;;;;;11.40;6.00;;;;;;;17.80;41.77;94385.69;5407252;26;20064;-75
2024/04/16 04:19:26;;;;;;;10.48;6.20;;;;;;;17.76;41.78;94390.72;5406761;26;19999;-74
2024/04/16 04:21:52;;;;;;;10.02;5.47;;;;;;;17.77;41.65;94372.78;5407338;26;20000;-74
2024/04/16 04:24:17;;;;;;;11.30;5.65;;;;;;;17.74;41.72;94384.91;5406335;26;20140;-73
2024/04/16 04:26:46;;;;;;;13.23;5.82;;;;;;;17.72;41.71;94393.75;5407773;26;20480;-73
2024/04/16 04:29:11;;;;;;;10.63;5.63;;;;;;;17.75;41.66;94383.66;5404847;26;20127;-73
2024/04/16 04:31:37;;;;;;;13.43;5.70;;;;;;;17.70;41.70;94392.69;5407269;26;19996;-73
2024/04/16 04:34:02;;;;;;;14.57;5.65;;;;;;;17.62;41.92;94378.50;5406500;26;20271;-74
2024/04/16 04:36:28;;;;;;;16.05;6.57;;;;;;;17.69;41.57;94389.16;5407012;26;20053;-74
2024/04/16 04:38:53;;;;;;;13.00;5.80;;;;;;;17.73;41.20;94395.28;5407197;26;20497;-75
2024/04/16 04:41:19;;;;;;;13.48;5.93;;;;;;;17.72;41.05;94404.09;5405122;26;20000;-73
2024/04/16 04:43:44;;;;;;;13.10;6.53;;;;;;;17.70;41.14;94410.13;5407200;26;20000;-74
2024/04/16 04:46:10;;;;;;;11.00;5.80;;;;;;;17.60;41.34;94399.69;5405914;26;20010;-74
2024/04/16 04:48:36;;;;;;;10.02;5.97;;;;;;;17.76;41.27;94404.63;5376422;26;19999;-75
2024/04/16 04:51:01;;;;;;;11.40;5.47;;;;;;;17.73;41.15;94397.28;5404228;26;20300;-74
2024/04/16 04:53:27;;;;;;;14.10;5.82;;;;;;;17.75;41.25;94417.00;5406279;26;19996;-74
2024/04/16 04:55:52;;;;;;;15.18;5.90;;;;;;;17.79;41.12;94414.75;5406128;26;20412;-74
2024/04/16 04:58:18;;;;;;;18.02;6.72;;;;;;;17.77;41.25;94423.56;5406070;26;20447;-73
2024/04/16 05:00:43;;;;;;;8.88;5.85;;;;;;;17.66;41.53;94417.94;5406723;26;20345;-75
2024/04/16 05:03:09;;;;;;;9.63;5.70;;;;;;;17.59;41.57;94410.03;5404097;26;20000;-73
2024/04/16 05:05:34;;;;;;;12.27;5.97;;;;;;;17.66;41.46;94411.59;5406756;26;20338;-75
2024/04/16 05:07:59;;;;;;;11.38;5.60;;;;;;;17.68;41.14;94412.66;5405854;26;20000;-74
2024/04/16 05:10:25;;;;;;;12.40;6.07;;;;;;;17.71;41.17;94402.53;5406692;26;19999;-75
2024/04/16 05:12:51;;;;;;;11.15;5.97;;;;;;;17.75;41.00;94400.31;5405968;26;20414;-74
2024/04/16 05:15:17;;;;;;;8.82;5.70;;;;;;;17.79;41.21;94398.09;5404634;26;20007;-74
2024/04/16 05:17:42;;;;;;;14.98;5.97;;;;;;;17.78;41.35;94400.09;5405643;26;19996;-73
2024/04/16 05:20:08;;;;;;;12.00;5.88;;;;;;;17.81;41.09;94386.47;5404095;26;20496;-74
2024/04/16 05:22:34;;;;;;;7.03;5.22;;;;;;;17.89;40.76;94385.50;5404089;26;20431;-74
2024/04/16 05:24:59;;;;;;;13.18;5.72;;;;;;;17.86;40.59;94380.16;5403934;26;19999;-74
2024/04/16 05:27:25;;;;;;;8.25;4.90;;;;;;;17.85;39.63;94382.19;5401242;26;20439;-74
2024/04/16 05:29:50;;;;;;;14.50;5.55;;;;;;;17.86;39.33;94380.94;5401493;26;19996;-74
2024/04/16 05:32:15;;;;;;;13.63;5.72;;;;;;;17.88;39.54;94378.41;5402270;26;20346;-74
2024/04/16 05:34:41;;;;;;;15.20;5.32;;;;;;;17.86;39.01;94380.94;5402048;26;20009;-74
2024/04/16 05:37:06;;;;;;;13.35;5.20;;;;;;;17.90;39.03;94389.81;5401814;26;20386;-74
2024/04/16 05:39:32;;;;;;;9.38;5.00;;;;;;;18.01;38.61;94394.66;5401752;26;20004;-75
2024/04/16 05:41:58;;;;;;;13.00;5.80;;;;;;;18.03;39.11;94389.34;5401796;26;20000;-75
2024/04/16 05:44:24;;;;;;;14.52;6.00;;;;;;;18.12;38.51;94397.50;5402088;26;20002;-75
2024/04/16 05:46:50;;;;;;;9.13;5.50;;;;;;;18.15;38.60;94392.94;5397621;26;19999;-74
2024/04/16 05:49:15;;;;;;;10.10;5.43;;;;;;;18.23;38.70;94405.09;5400308;26;20391;-73
2024/04/16 05:51:40;;;;;;;12.02;6.00;;;;;;;18.26;38.43;94396.53;5401466;26;20423;-73
2024/04/16 05:54:06;;;;;;;13.80;5.88;;;;;;;18.38;37.94;94388.22;5401713;26;19999;-74
2024/04/16 05:56:33;;;;;;;9.88;5.13;;;;;;;18.43;37.06;94390.25;5401078;26;20000;-75
2024/04/16 05:58:58;;;;;;;13.80;5.07;;;;;;;18.51;36.62;94394.06;5401169;26;20085;-75
2024/04/16 06:01:24;;;;;;;12.73;5.18;;;;;;;18.55;36.29;94406.47;5399491;26;20019;-73
2024/04/16 06:03:49;;;;;;;6.63;4.35;;;;;;;18.62;35.96;94393.34;5400804;26;19992;-74
2024/04/16 06:06:14;;;;;;;10.05;4.47;;;;;;;18.72;35.52;94398.19;5402030;26;20414;-75
2024/04/16 06:08:40;;;;;;;6.80;4.05;;;;;;;18.82;35.11;94385.56;5400628;26;19999;-75
2024/04/16 06:11:05;;;;;;;10.30;5.18;;;;;;;18.83;35.46;94378.72;5402132;26;20000;-74
2024/04/16 06:13:31;;;;;;;15.30;5.50;;;;;;;18.83;35.80;94375.94;5401027;26;19999;-74
2024/04/16 06:15:56;;;;;;;8.65;4.72;;;;;;;18.96;35.65;94385.81;5401280;26;20367;-75
2024/04/16 06:18:22;;;;;;;11.27;4.85;;;;;;;19.03;35.22;94388.09;5401128;26;20010;-77
2024/04/16 06:20:47;;;;;;;9.13;4.25;;;;;;;19.10;34.79;94382.81;5400720;26;19995;-75
2024/04/16 06:23:13;;;;;;;9.82;5.75;;;;;;;19.14;34.80;94365.81;5401024;26;20021;-74
2024/04/16 06:25:39;;;;;;;16.30;4.93;;;;;;;19.15;35.04;94367.34;5400280;26;19996;-74
2024/04/16 06:28:04;;;;;;;12.60;4.80;;;;;;;19.18;34.97;94360.78;5402242;26;20294;-75
2024/04/16 06:30:29;;;;;;;11.30;4.97;;;;;;;19.21;34.82;94361.75;5400516;26;19999;-73
2024/04/16 06:32:55;;;;;;;11.93;4.97;;;;;;;19.28;35.32;94364.81;5401835;26;19999;-74
2024/04/16 06:35:20;;;;;;;11.07;5.38;;;;;;;19.36;35.47;94351.88;5400696;26;20011;-75
2024/04/16 06:37:45;;;;;;;13.93;5.25;;;;;;;19.49;35.18;94350.59;5400607;26;20002;-75
2024/04/16 06:40:11;;;;;;;9.05;4.60;;;;;;;19.60;35.30;94350.59;5400241;26;20479;-75
2024/04/16 06:42:37;;;;;;;13.00;4.72;;;;;;;19.72;35.31;94334.59;5400220;26;20047;-76
2024/04/16 06:45:03;;;;;;;9.88;5.38;;;;;;;19.80;35.28;94341.94;5401765;26;20000;-75
2024/04/16 06:47:29;;;;;;;12.23;5.50;;;;;;;19.85;35.38;94338.38;5399822;26;20130;-74
2024/04/16 06:49:54;;;;;;;11.95;5.43;;;;;;;19.92;35.48;94330.75;5402027;26;20000;-74
2024/04/16 06:52:19;;;;;;;11.07;5.20;;;;;;;19.95;35.26;94324.88;5400035;26;19999;-75
2024/04/16 06:54:47;;;;;;;13.68;5.68;;;;;;;20.09;35.33;94317.50;5401367;26;20338;-74
2024/04/16 06:57:12;;;;;;;15.38;5.55;;;;;;;20.06;35.41;94324.84;5399338;26;20000;-74
2024/04/16 06:59:38;;;;;;;8.68;5.00;;;;;;;20.09;35.60;94323.06;5400353;26;20347;-73
2024/04/16 07:02:03;;;;;;;13.50;6.35;;;;;;;20.05;35.20;94319.78;5400866;26;20441;-75
2024/04/16 07:04:29;;;;;;;11.05;5.28;;;;;;;20.01;35.45;94324.88;5395210;26;19996;-74
2024/04/16 07:06:54;;;;;;;9.63;4.65;;;;;;;20.07;35.29;94320.03;5401328;26;19992;-73
2024/04/16 07:09:19;;;;;;;9.73;5.00;;;;;;;20.07;35.19;94312.44;5399265;26;20006;-75
2024/04/16 07:11:45;;;;;;;10.70;5.20;;;;;;;20.12;35.77;94310.88;5401119;26;20383;-76
2024/04/16 07:14:10;;;;;;;14.50;5.20;;;;;;;20.13;35.67;94318.75;5399847;26;20000;-74
2024/04/16 07:16:36;;;;;;;12.95;5.50;;;;;;;20.21;35.20;94321.00;5400298;26;20173;-75
2024/04/16 07:19:01;;;;;;;14.15;6.32;;;;;;;20.26;35.18;94315.38;5400624;26;20304;-75
2024/04/16 07:21:26;;;;;;;13.50;5.45;;;;;;;20.35;35.36;94303.91;5399659;26;20015;-74
2024/04/16 07:23:54;;;;;;;15.40;5.95;;;;;;;20.51;35.16;94302.31;5400921;26;20068;-75
2024/04/16 07:26:19;;;;;;;13.95;5.35;;;;;;;20.59;34.89;94305.31;5399329;26;20430;-75
2024/04/16 07:28:45;;;;;;;16.45;5.38;;;;;;;20.72;34.50;94310.31;5401564;26;20007;-75
2024/04/16 07:31:10;;;;;;;13.63;5.55;;;;;;;20.82;34.60;94306.69;5399353;26;20036;-75
2024/04/16 07:33:36;;;;;;;13.73;5.90;;;;;;;20.97;34.63;94294.38;5400524;26;20060;-74
2024/04/16 07:36:08;;;;;;;8.68;5.55;;;;;;;21.11;34.92;94294.00;5400284;26;20000;-75
2024/04/16 07:38:37;;;;;;;16.85;5.95;;;;;;;21.18;34.09;94287.06;5399762;26;19996;-75
2024/04/16 07:41:02;;;;;;;11.20;5.60;;;;;;;21.36;33.79;94289.22;5398670;26;20027;-74
2024/04/16 07:43:28;;;;;;;13.98;5.93;;;;;;;21.44;33.49;94290.13;5398695;26;20060;-76
2024/04/16 07:45:53;;;;;;;9.57;5.50;;;;;;;21.54;33.48;94292.59;5369536;26;20006;-74
2024/04/16 07:48:19;;;;;;;12.18;5.97;;;;;;;21.65;33.00;94298.06;5396894;26;20383;-73
2024/04/16 07:50:48;;;;;;;15.55;7.00;;;;;;;21.74;32.95;94294.94;5399681;26;20032;-73
2024/04/16 07:53:14;;;;;;;13.45;6.25;;;;;;;21.83;32.77;94297.34;5399262;26;20011;-73
2024/04/16 07:55:40;;;;;;;13.85;6.55;;;;;;;22.03;32.03;94298.91;5399181;26;20006;-74
2024/04/16 07:58:05;;;;;;;14.52;5.50;;;;;;;22.17;31.39;94289.31;5400480;26;19996;-75
2024/04/16 08:00:31;;;;;;;14.10;5.97;;;;;;;22.26;30.92;94291.75;5398854;26;20024;-74
2024/04/16 08:02:56;;;;;;;10.95;5.57;;;;;;;22.36;31.24;94288.56;5399056;26;20103;-74
2024/04/16 08:05:22;;;;;;;11.23;5.35;;;;;;;22.47;30.73;94285.59;5398803;26;20150;-73
2024/04/16 08:07:47;;;;;;;12.48;5.30;;;;;;;22.52;30.86;94279.19;5400641;26;20007;-74
2024/04/16 08:10:13;;;;;;;10.82;5.43;;;;;;;22.68;31.42;94297.03;5398011;26;20006;-74
2024/04/16 08:12:38;;;;;;;12.55;4.70;;;;;;;22.83;31.15;94280.50;5399762;26;20072;-75
2024/04/16 08:15:04;;;;;;;10.80;4.97;;;;;;;22.93;29.63;94275.25;5399679;26;20014;-75
2024/04/16 08:17:30;;;;;;;16.25;6.07;;;;;;;23.00;29.43;94275.41;5399292;26;20375;-75
2024/04/16 08:19:55;;;;;;;11.73;5.07;;;;;;;23.21;30.21;94283.22;5400477;26;19996;-75
2024/04/16 08:22:21;;;;;;;9.98;4.65;;;;;;;23.35;30.29;94270.75;5398668;26;20008;-75
2024/04/16 08:24:46;;;;;;;14.60;6.32;;;;;;;23.52;30.58;94273.25;5400131;26;19996;-75
2024/04/16 08:27:11;;;;;;;13.82;5.90;;;;;;;23.63;29.38;94264.66;5397364;26;20024;-75
2024/04/16 08:29:37;;;;;;;17.58;6.07;;;;;;;23.87;29.43;94269.28;5398018;26;20006;-75
2024/04/16 08:32:02;;;;;;;11.00;5.57;;;;;;;24.08;28.89;94270.09;5399241;26;20000;-76
2024/04/16 08:34:27;;;;;;;13.23;5.80;;;;;;;24.28;29.09;94263.06;5399025;26;20064;-74
2024/04/16 08:36:53;;;;;;;20.25;7.00;;;;;;;24.36;29.10;94268.78;5399342;26;20003;-74
2024/04/16 08:39:19;;;;;;;14.90;6.00;;;;;;;24.52;29.07;94266.91;5398702;26;20428;-75
2024/04/16 08:41:44;;;;;;;10.05;5.35;;;;;;;24.73;28.86;94266.94;5399425;26;19996;-74
2024/04/16 08:44:11;;;;;;;14.68;5.78;;;;;;;25.00;28.45;94268.31;5398790;26;20004;-74
2024/04/16 08:46:37;;;;;;;17.52;6.28;;;;;;;25.06;27.67;94257.75;5368366;26;20010;-75
2024/04/16 08:49:04;;;;;;;11.63;5.15;;;;;;;25.11;27.68;94256.81;5367474;26;20000;-74
2024/04/16 08:51:29;;;;;;;9.85;5.25;;;;;;;25.12;27.91;94252.72;5397484;26;20003;-74
2024/04/16 08:53:55;;;;;;;15.07;6.30;;;;;;;25.16;27.97;94252.38;5397253;26;20023;-74
2024/04/16 08:56:21;;;;;;;13.90;5.93;;;;;;;25.37;27.96;94267.16;5398804;26;19999;-75
2024/04/16 08:58:46;;;;;;;14.90;6.20;;;;;;;25.46;27.71;94262.34;5399299;26;20000;-76
2024/04/16 09:01:11;;;;;;;11.95;6.15;;;;;;;25.57;26.51;94259.97;5398566;26;20019;-74
2024/04/16 09:03:38;;;;;;;13.98;5.03;;;;;;;25.56;26.31;94252.09;5401180;26;19996;-75
2024/04/16 09:06:04;;;;;;;12.23;5.07;;;;;;;25.66;26.48;94256.69;5370975;26;20004;-74
2024/04/16 09:08:29;;;;;;;13.75;5.82;;;;;;;25.74;26.43;94250.38;5402441;26;20031;-78
2024/04/16 09:10:55;;;;;;;12.60;5.47;;;;;;;25.83;25.98;94252.69;5400317;26;20150;-74
2024/04/16 09:13:21;;;;;;;11.75;4.85;;;;;;;25.92;25.71;94252.16;5402247;26;19995;-73
2024/04/16 09:15:47;;;;;;;14.45;5.22;;;;;;;25.91;25.42;94236.56;5400892;26;20000;-74
2024/04/16 09:18:13;;;;;;;13.43;6.43;;;;;;;25.98;25.78;94235.09;5401459;26;20395;-74
2024/04/16 09:20:39;;;;;;;15.40;6.57;;;;;;;25.97;27.60;94236.41;5402289;26;20000;-76
2024/04/16 09:23:04;;;;;;;10.43;5.55;;;;;;;26.01;26.91;94229.13;5401718;26;20010;-76
2024/04/16 09:25:29;;;;;;;15.25;5.57;;;;;;;25.99;26.83;94223.28;5402289;26;20450;-76
2024/04/16 09:27:56;;;;;;;14.02;4.65;;;;;;;26.06;26.11;94227.44;5399828;26;20000;-75
2024/04/16 09:30:22;;;;;;;11.80;4.68;;;;;;;25.98;26.87;94207.72;5401809;26;20004;-75
2024/04/16 09:33:02;;;;;;;14.20;5.18;;;;;;;26.11;27.13;94218.84;5401654;26;20000;-75
2024/04/16 09:35:29;;;;;;;9.77;4.90;;;;;;;26.06;26.67;94216.19;5401890;26;19996;-75
2024/04/16 09:38:08;;;;;;;14.55;4.32;;;;;;;26.10;25.95;94191.25;5400714;26;20523;-77
2024/04/16 09:40:34;;;;;;;12.65;4.32;;;;;;;26.17;25.93;94196.16;5399806;26;20035;-74
2024/04/16 09:43:00;;;;;;;10.70;5.18;;;;;;;26.26;27.55;94192.03;5402655;26;20007;-74
2024/04/16 09:45:28;;;;;;;13.02;5.28;;;;;;;26.32;27.35;94190.53;5401396;26;20125;-73
2024/04/16 09:47:55;;;;;;;15.73;5.85;;;;;;;26.39;27.44;94181.38;5402209;26;20032;-74
2024/04/16 09:50:21;;;;;;;10.77;5.57;;;;;;;26.39;26.81;94187.00;5401762;26;20064;-73
2024/04/16 09:52:54;;;;;;;11.45;5.00;;;;;;;26.39;26.23;94186.25;5400917;26;20338;-73
2024/04/16 09:55:23;;;;;;;;;;;;;;;26.46;26.30;94179.91;5401620;26;20010;-75
2024/04/16 09:57:49;;;;;;;12.15;5.47;;;;;;;26.41;27.17;94175.19;5401217;26;19932;-75
2024/04/16 10:00:15;;;;;;;11.43;5.55;;;;;;;26.43;26.59;94178.19;5402267;26;20365;-73
2024/04/16 10:02:43;;;;;;;15.30;4.90;;;;;;;26.37;25.64;94166.31;5401222;26;20000;-74
2024/04/16 10:05:13;;;;;;;14.35;5.07;;;;;;;26.46;25.22;94157.38;5401964;26;20000;-74
2024/04/16 10:07:40;;;;;;;19.25;6.03;;;;;;;26.43;24.26;94156.41;5402136;26;20446;-74
2024/04/16 10:10:09;;;;;;;14.98;4.90;;;;;;;26.31;23.96;94137.59;5399509;26;19996;-74
2024/04/16 10:12:35;;;;;;;14.55;4.63;;;;;;;26.36;23.71;94140.22;5402103;26;19996;-74
2024/04/16 10:15:05;;;;;;;16.92;4.93;;;;;;;26.60;23.86;94147.41;5399681;26;20028;-74
2024/04/16 10:17:32;;;;;;;15.45;5.20;;;;;;;26.86;23.62;94145.56;5402301;26;20010;-73
2024/04/16 10:19:57;;;;;;;15.20;4.63;;;;;;;27.03;23.89;94139.34;5370575;26;20003;-74
2024/04/16 10:22:23;;;;;;;13.73;4.75;;;;;;;27.29;23.95;94138.22;5401585;26;20000;-74
2024/04/16 10:24:54;;;;;;;14.32;4.45;;;;;;;27.49;23.96;94134.41;5401573;26;20399;-74
2024/04/16 10:27:22;;;;;;;16.80;5.38;;;;;;;27.74;24.54;94134.53;5401266;26;20232;-74
2024/04/16 10:29:47;;;;;;;15.75;5.78;;;;;;;28.04;23.06;94131.63;5402262;26;20115;-74
2024/04/16 10:32:12;;;;;;;17.40;5.43;;;;;;;28.23;22.51;94127.56;5398925;26;20127;-74
2024/04/16 10:34:42;;;;;;;15.30;5.57;;;;;;;28.30;22.70;94116.19;5400403;26;20006;-74
2024/04/16 10:37:07;;;;;;;17.33;4.75;;;;;;;27.71;21.87;94121.59;5401060;26;19996;-74
2024/04/16 10:39:33;;;;;;;16.23;4.40;;;;;;;27.64;22.24;94123.09;5401131;26;20175;-73
2024/04/16 10:42:01;;;;;;;17.23;4.80;;;;;;;27.45;22.75;94119.94;5401505;26;20096;-74
2024/04/16 10:44:27;;;;;;;14.80;5.22;;;;;;;27.64;23.03;94113.84;5400938;26;20351;-73
2024/04/16 10:46:53;;;;;;;21.90;5.40;;;;;;;27.56;22.21;94118.78;5401825;26;20000;-73
2024/04/16 10:49:22;;;;;;;18.83;5.15;;;;;;;27.10;22.58;94102.69;5400621;26;20006;-74
2024/04/16 10:51:51;;;;;;;20.70;5.13;;;;;;;26.93;23.01;94103.25;5401584;26;19996;-73
2024/04/16 10:54:17;;;;;;;18.80;4.95;;;;;;;26.68;23.54;94091.81;5400889;26;20000;-74
2024/04/16 10:56:43;;;;;;;22.55;5.03;;;;;;;26.38;23.90;94083.31;5400848;26;20302;-74
2024/04/16 10:59:09;;;;;;;19.20;5.10;;;;;;;26.06;23.88;94086.66;5401219;26;19996;-72
2024/04/16 11:01:46;;;;;;;18.90;5.35;;;;;;;25.97;24.10;94096.38;5400258;26;20004;-73
2024/04/16 11:04:12;;;;;;;17.70;4.93;;;;;;;25.83;24.63;94081.72;5401804;26;20334;-72
2024/04/16 11:06:39;;;;;;;21.40;5.07;;;;;;;25.73;24.56;94088.41;5400517;26;20007;-72
2024/04/16 11:09:04;;;;;;;18.00;4.75;;;;;;;25.51;24.73;94090.56;5401393;26;20007;-72
2024/04/16 11:11:33;;;;;;;15.70;4.82;;;;;;;25.25;25.46;94080.31;5399983;26;20068;-72
2024/04/16 11:13:59;;;;;;;19.77;5.85;;;;;;;25.10;25.62;94089.41;5401183;26;20004;-73
2024/04/16 11:16:24;;;;;;;26.65;5.82;;;;;;;25.02;25.65;94090.66;5400609;26;20395;-73
2024/04/16 11:18:50;;;;;;;15.68;5.10;;;;;;;24.92;25.27;94093.22;5400826;26;20322;-73
2024/04/16 11:21:16;;;;;;;17.25;4.43;;;;;;;24.84;25.70;94098.03;5401239;26;20008;-73
2024/04/16 11:23:41;;;;;;;20.23;4.20;;;;;;;24.74;25.67;94116.69;5398489;26;20007;-73
2024/04/16 11:26:08;;;;;;;22.70;4.10;;;;;;;24.72;25.47;94119.31;5401371;26;20145;-72